sensor_id;sensor_type;location;lat;lon;timestamp;P1;durP1;ratioP1;P2;durP2;ratioP2
13477;SDS011;12598;62.382;17.344;2023-06-26T00:00:31;2.33;;;1.50;;
13477;SDS011;12598;62.382;17.344;2023-06-26T00:01:34;2.85;;;1.58;;
13477;SDS011;12598;62.382;17.344;2023-06-26T00:02:36;1.70;;;1.50;;
13477;SDS011;12598;62.382;17.344;2023-06-26T00:03:38;1.48;;;1.38;;
13477;SDS011;12598;62.382;17.344;2023-06-26T00:04:42;1.85;;;1.40;;
13477;SDS011;12598;62.382;17.344;2023-06-26T00:05:44;1.70;;;1.60;;
13477;SDS011;12598;62.382;17.344;2023-06-26T00:06:46;2.58;;;1.50;;
13477;SDS011;12598;62.382;17.344;2023-06-26T00:07:48;1.70;;;1.60;;
13477;SDS011;12598;62.382;17.344;2023-06-26T00:08:50;2.17;;;1.48;;
13477;SDS011;12598;62.382;17.344;2023-06-26T00:09:52;1.63;;;1.52;;
13477;SDS011;12598;62.382;17.344;2023-06-26T00:10:54;1.45;;;1.35;;
13477;SDS011;12598;62.382;17.344;2023-06-26T00:11:56;1.90;;;1.80;;
13477;SDS011;12598;62.382;17.344;2023-06-26T00:12:58;1.83;;;1.70;;
13477;SDS011;12598;62.382;17.344;2023-06-26T00:14:00;2.53;;;1.63;;
13477;SDS011;12598;62.382;17.344;2023-06-26T00:15:02;1.70;;;1.60;;
13477;SDS011;12598;62.382;17.344;2023-06-26T00:16:04;1.35;;;1.25;;
13477;SDS011;12598;62.382;17.344;2023-06-26T00:17:06;1.80;;;1.60;;
13477;SDS011;12598;62.382;17.344;2023-06-26T00:18:08;1.88;;;1.40;;
13477;SDS011;12598;62.382;17.344;2023-06-26T00:19:10;2.35;;;1.73;;
13477;SDS011;12598;62.382;17.344;2023-06-26T00:20:12;1.70;;;1.60;;
13477;SDS011;12598;62.382;17.344;2023-06-26T00:21:16;1.70;;;1.60;;
13477;SDS011;12598;62.382;17.344;2023-06-26T00:22:18;1.60;;;1.50;;
13477;SDS011;12598;62.382;17.344;2023-06-26T00:23:20;1.75;;;1.48;;
13477;SDS011;12598;62.382;17.344;2023-06-26T00:24:22;1.67;;;1.58;;
13477;SDS011;12598;62.382;17.344;2023-06-26T00:25:24;1.83;;;1.73;;
13477;SDS011;12598;62.382;17.344;2023-06-26T00:26:26;1.80;;;1.70;;
13477;SDS011;12598;62.382;17.344;2023-06-26T00:27:28;1.60;;;1.50;;
13477;SDS011;12598;62.382;17.344;2023-06-26T00:28:29;1.75;;;1.65;;
13477;SDS011;12598;62.382;17.344;2023-06-26T00:29:31;1.70;;;1.60;;
13477;SDS011;12598;62.382;17.344;2023-06-26T00:30:33;2.03;;;1.77;;
13477;SDS011;12598;62.382;17.344;2023-06-26T00:31:35;1.98;;;1.60;;
13477;SDS011;12598;62.382;17.344;2023-06-26T00:32:37;2.10;;;1.50;;
13477;SDS011;12598;62.382;17.344;2023-06-26T00:33:40;1.70;;;1.60;;
13477;SDS011;12598;62.382;17.344;2023-06-26T00:34:41;1.63;;;1.52;;
13477;SDS011;12598;62.382;17.344;2023-06-26T00:35:43;1.60;;;1.50;;
13477;SDS011;12598;62.382;17.344;2023-06-26T00:36:45;1.92;;;1.40;;
13477;SDS011;12598;62.382;17.344;2023-06-26T00:37:47;1.58;;;1.48;;
13477;SDS011;12598;62.382;17.344;2023-06-26T00:38:49;1.73;;;1.50;;
13477;SDS011;12598;62.382;17.344;2023-06-26T00:39:51;1.80;;;1.70;;
13477;SDS011;12598;62.382;17.344;2023-06-26T00:40:53;2.00;;;1.90;;
13477;SDS011;12598;62.382;17.344;2023-06-26T00:41:57;1.60;;;1.50;;
13477;SDS011;12598;62.382;17.344;2023-06-26T00:42:59;1.70;;;1.60;;
13477;SDS011;12598;62.382;17.344;2023-06-26T00:44:00;1.80;;;1.70;;
13477;SDS011;12598;62.382;17.344;2023-06-26T00:45:02;2.63;;;1.90;;
13477;SDS011;12598;62.382;17.344;2023-06-26T00:46:04;1.70;;;1.60;;
13477;SDS011;12598;62.382;17.344;2023-06-26T00:47:13;1.60;;;1.42;;
13477;SDS011;12598;62.382;17.344;2023-06-26T00:48:17;2.00;;;1.90;;
13477;SDS011;12598;62.382;17.344;2023-06-26T00:49:19;1.80;;;1.70;;
13477;SDS011;12598;62.382;17.344;2023-06-26T00:50:21;1.83;;;1.73;;
13477;SDS011;12598;62.382;17.344;2023-06-26T00:51:24;1.92;;;1.77;;
13477;SDS011;12598;62.382;17.344;2023-06-26T00:52:27;1.63;;;1.52;;
13477;SDS011;12598;62.382;17.344;2023-06-26T00:53:30;1.92;;;1.83;;
13477;SDS011;12598;62.382;17.344;2023-06-26T00:54:32;2.35;;;1.45;;
13477;SDS011;12598;62.382;17.344;2023-06-26T00:55:34;1.67;;;1.58;;
13477;SDS011;12598;62.382;17.344;2023-06-26T00:56:36;1.95;;;1.85;;
13477;SDS011;12598;62.382;17.344;2023-06-26T00:57:39;1.90;;;1.80;;
13477;SDS011;12598;62.382;17.344;2023-06-26T00:58:41;1.60;;;1.50;;
13477;SDS011;12598;62.382;17.344;2023-06-26T00:59:43;1.60;;;1.50;;
13477;SDS011;12598;62.382;17.344;2023-06-26T01:00:45;1.60;;;1.50;;
13477;SDS011;12598;62.382;17.344;2023-06-26T01:01:47;1.70;;;1.60;;
13477;SDS011;12598;62.382;17.344;2023-06-26T01:02:50;1.63;;;1.52;;
13477;SDS011;12598;62.382;17.344;2023-06-26T01:03:52;1.83;;;1.73;;
13477;SDS011;12598;62.382;17.344;2023-06-26T01:04:55;1.98;;;1.75;;
13477;SDS011;12598;62.382;17.344;2023-06-26T01:05:57;1.88;;;1.58;;
13477;SDS011;12598;62.382;17.344;2023-06-26T01:07:00;2.47;;;1.88;;
13477;SDS011;12598;62.382;17.344;2023-06-26T01:08:06;1.80;;;1.70;;
13477;SDS011;12598;62.382;17.344;2023-06-26T01:09:10;1.95;;;1.85;;
13477;SDS011;12598;62.382;17.344;2023-06-26T01:10:12;1.77;;;1.67;;
13477;SDS011;12598;62.382;17.344;2023-06-26T01:11:14;1.85;;;1.75;;
13477;SDS011;12598;62.382;17.344;2023-06-26T01:12:16;1.95;;;1.80;;
13477;SDS011;12598;62.382;17.344;2023-06-26T01:13:18;1.80;;;1.70;;
13477;SDS011;12598;62.382;17.344;2023-06-26T01:14:21;4.45;;;2.25;;
13477;SDS011;12598;62.382;17.344;2023-06-26T01:15:23;1.67;;;1.58;;
13477;SDS011;12598;62.382;17.344;2023-06-26T01:16:25;1.90;;;1.80;;
13477;SDS011;12598;62.382;17.344;2023-06-26T01:17:29;1.58;;;1.48;;
13477;SDS011;12598;62.382;17.344;2023-06-26T01:18:34;2.28;;;2.08;;
13477;SDS011;12598;62.382;17.344;2023-06-26T01:19:39;1.90;;;1.80;;
13477;SDS011;12598;62.382;17.344;2023-06-26T01:20:42;1.88;;;1.77;;
13477;SDS011;12598;62.382;17.344;2023-06-26T01:21:45;2.45;;;1.70;;
13477;SDS011;12598;62.382;17.344;2023-06-26T01:24:33;1.98;;;1.70;;
13477;SDS011;12598;62.382;17.344;2023-06-26T01:25:59;1.92;;;1.58;;
13477;SDS011;12598;62.382;17.344;2023-06-26T01:27:16;1.90;;;1.80;;
13477;SDS011;12598;62.382;17.344;2023-06-26T01:28:22;2.10;;;1.73;;
13477;SDS011;12598;62.382;17.344;2023-06-26T01:29:25;1.70;;;1.60;;
13477;SDS011;12598;62.382;17.344;2023-06-26T01:30:30;2.15;;;1.95;;
13477;SDS011;12598;62.382;17.344;2023-06-26T01:31:38;1.88;;;1.77;;
13477;SDS011;12598;62.382;17.344;2023-06-26T01:32:41;2.17;;;1.83;;
13477;SDS011;12598;62.382;17.344;2023-06-26T01:33:43;1.85;;;1.75;;
13477;SDS011;12598;62.382;17.344;2023-06-26T01:34:47;1.80;;;1.70;;
13477;SDS011;12598;62.382;17.344;2023-06-26T01:35:49;1.73;;;1.63;;
13477;SDS011;12598;62.382;17.344;2023-06-26T01:36:51;2.72;;;1.90;;
13477;SDS011;12598;62.382;17.344;2023-06-26T01:37:53;2.38;;;2.17;;
13477;SDS011;12598;62.382;17.344;2023-06-26T01:39:15;1.70;;;1.60;;
13477;SDS011;12598;62.382;17.344;2023-06-26T01:40:18;1.65;;;1.55;;
13477;SDS011;12598;62.382;17.344;2023-06-26T01:41:20;2.20;;;1.75;;
13477;SDS011;12598;62.382;17.344;2023-06-26T01:42:22;2.70;;;1.73;;
13477;SDS011;12598;62.382;17.344;2023-06-26T01:44:57;2.28;;;2.00;;
13477;SDS011;12598;62.382;17.344;2023-06-26T01:46:06;2.10;;;2.00;;
13477;SDS011;12598;62.382;17.344;2023-06-26T01:47:28;1.88;;;1.77;;
13477;SDS011;12598;62.382;17.344;2023-06-26T01:48:39;2.58;;;2.10;;
13477;SDS011;12598;62.382;17.344;2023-06-26T01:50:22;1.80;;;1.70;;
13477;SDS011;12598;62.382;17.344;2023-06-26T01:51:22;1.90;;;1.80;;
13477;SDS011;12598;62.382;17.344;2023-06-26T01:52:31;3.47;;;2.15;;
13477;SDS011;12598;62.382;17.344;2023-06-26T01:53:41;2.70;;;1.90;;
13477;SDS011;12598;62.382;17.344;2023-06-26T01:54:57;1.90;;;1.80;;
13477;SDS011;12598;62.382;17.344;2023-06-26T01:56:08;3.65;;;2.00;;
13477;SDS011;12598;62.382;17.344;2023-06-26T01:57:14;2.15;;;1.95;;
13477;SDS011;12598;62.382;17.344;2023-06-26T01:58:21;2.20;;;2.00;;
13477;SDS011;12598;62.382;17.344;2023-06-26T01:59:25;2.00;;;1.90;;
13477;SDS011;12598;62.382;17.344;2023-06-26T02:00:32;1.98;;;1.88;;
13477;SDS011;12598;62.382;17.344;2023-06-26T02:01:36;2.03;;;1.92;;
13477;SDS011;12598;62.382;17.344;2023-06-26T02:02:40;2.00;;;1.75;;
13477;SDS011;12598;62.382;17.344;2023-06-26T02:03:43;1.85;;;1.70;;
13477;SDS011;12598;62.382;17.344;2023-06-26T02:04:45;2.17;;;1.90;;
13477;SDS011;12598;62.382;17.344;2023-06-26T02:05:50;1.98;;;1.88;;
13477;SDS011;12598;62.382;17.344;2023-06-26T02:06:52;1.98;;;1.88;;
13477;SDS011;12598;62.382;17.344;2023-06-26T02:07:56;2.03;;;1.90;;
13477;SDS011;12598;62.382;17.344;2023-06-26T02:08:58;2.20;;;2.00;;
13477;SDS011;12598;62.382;17.344;2023-06-26T02:10:00;2.42;;;2.33;;
13477;SDS011;12598;62.382;17.344;2023-06-26T02:11:02;2.10;;;2.00;;
13477;SDS011;12598;62.382;17.344;2023-06-26T02:12:04;2.50;;;2.30;;
13477;SDS011;12598;62.382;17.344;2023-06-26T02:13:06;2.15;;;2.05;;
13477;SDS011;12598;62.382;17.344;2023-06-26T02:14:08;1.95;;;1.85;;
13477;SDS011;12598;62.382;17.344;2023-06-26T02:15:12;2.00;;;1.90;;
13477;SDS011;12598;62.382;17.344;2023-06-26T02:16:14;2.35;;;2.22;;
13477;SDS011;12598;62.382;17.344;2023-06-26T02:17:16;2.30;;;2.10;;
13477;SDS011;12598;62.382;17.344;2023-06-26T02:18:18;2.28;;;2.15;;
13477;SDS011;12598;62.382;17.344;2023-06-26T02:19:23;2.70;;;1.88;;
13477;SDS011;12598;62.382;17.344;2023-06-26T02:20:26;2.25;;;2.03;;
13477;SDS011;12598;62.382;17.344;2023-06-26T02:21:28;1.98;;;1.88;;
13477;SDS011;12598;62.382;17.344;2023-06-26T02:22:30;2.08;;;1.95;;
13477;SDS011;12598;62.382;17.344;2023-06-26T02:23:32;2.00;;;1.90;;
13477;SDS011;12598;62.382;17.344;2023-06-26T02:24:34;2.05;;;1.80;;
13477;SDS011;12598;62.382;17.344;2023-06-26T02:25:37;2.55;;;1.77;;
13477;SDS011;12598;62.382;17.344;2023-06-26T02:26:38;2.00;;;1.90;;
13477;SDS011;12598;62.382;17.344;2023-06-26T02:27:40;2.25;;;2.13;;
13477;SDS011;12598;62.382;17.344;2023-06-26T02:28:43;2.22;;;1.77;;
13477;SDS011;12598;62.382;17.344;2023-06-26T02:29:46;1.90;;;1.80;;
13477;SDS011;12598;62.382;17.344;2023-06-26T02:30:48;2.40;;;2.20;;
13477;SDS011;12598;62.382;17.344;2023-06-26T02:31:50;3.60;;;2.30;;
13477;SDS011;12598;62.382;17.344;2023-06-26T02:32:51;1.77;;;1.67;;
13477;SDS011;12598;62.382;17.344;2023-06-26T02:33:53;4.25;;;2.10;;
13477;SDS011;12598;62.382;17.344;2023-06-26T02:34:55;1.95;;;1.85;;
13477;SDS011;12598;62.382;17.344;2023-06-26T02:35:57;1.90;;;1.80;;
13477;SDS011;12598;62.382;17.344;2023-06-26T02:36:59;2.13;;;2.03;;
13477;SDS011;12598;62.382;17.344;2023-06-26T02:38:02;2.65;;;1.85;;
13477;SDS011;12598;62.382;17.344;2023-06-26T02:39:04;2.65;;;2.40;;
13477;SDS011;12598;62.382;17.344;2023-06-26T02:40:07;2.42;;;1.80;;
13477;SDS011;12598;62.382;17.344;2023-06-26T02:41:12;2.85;;;2.03;;
13477;SDS011;12598;62.382;17.344;2023-06-26T02:42:14;2.17;;;1.98;;
13477;SDS011;12598;62.382;17.344;2023-06-26T02:43:16;3.42;;;2.20;;
13477;SDS011;12598;62.382;17.344;2023-06-26T02:44:19;2.33;;;2.13;;
13477;SDS011;12598;62.382;17.344;2023-06-26T02:45:20;4.00;;;2.10;;
13477;SDS011;12598;62.382;17.344;2023-06-26T02:46:23;3.05;;;2.05;;
13477;SDS011;12598;62.382;17.344;2023-06-26T02:47:25;2.05;;;1.95;;
13477;SDS011;12598;62.382;17.344;2023-06-26T02:48:27;3.00;;;1.90;;
13477;SDS011;12598;62.382;17.344;2023-06-26T02:49:29;2.20;;;2.00;;
13477;SDS011;12598;62.382;17.344;2023-06-26T02:50:31;3.30;;;2.20;;
13477;SDS011;12598;62.382;17.344;2023-06-26T02:51:42;3.22;;;2.30;;
13477;SDS011;12598;62.382;17.344;2023-06-26T02:52:50;3.42;;;2.30;;
13477;SDS011;12598;62.382;17.344;2023-06-26T02:53:56;2.38;;;2.28;;
13477;SDS011;12598;62.382;17.344;2023-06-26T02:54:58;2.35;;;2.15;;
13477;SDS011;12598;62.382;17.344;2023-06-26T02:56:00;2.80;;;2.00;;
13477;SDS011;12598;62.382;17.344;2023-06-26T02:57:02;2.30;;;2.20;;
13477;SDS011;12598;62.382;17.344;2023-06-26T02:58:05;2.63;;;2.30;;
13477;SDS011;12598;62.382;17.344;2023-06-26T02:59:09;2.42;;;2.22;;
13477;SDS011;12598;62.382;17.344;2023-06-26T03:00:11;2.85;;;2.60;;
13477;SDS011;12598;62.382;17.344;2023-06-26T03:01:20;2.45;;;2.15;;
13477;SDS011;12598;62.382;17.344;2023-06-26T03:02:22;2.20;;;2.05;;
13477;SDS011;12598;62.382;17.344;2023-06-26T03:03:26;2.97;;;1.92;;
13477;SDS011;12598;62.382;17.344;2023-06-26T03:04:28;2.35;;;2.20;;
13477;SDS011;12598;62.382;17.344;2023-06-26T03:05:30;2.08;;;1.98;;
13477;SDS011;12598;62.382;17.344;2023-06-26T03:06:33;2.33;;;2.03;;
13477;SDS011;12598;62.382;17.344;2023-06-26T03:07:35;3.00;;;1.98;;
13477;SDS011;12598;62.382;17.344;2023-06-26T03:08:37;2.45;;;2.00;;
13477;SDS011;12598;62.382;17.344;2023-06-26T03:09:42;2.10;;;1.90;;
13477;SDS011;12598;62.382;17.344;2023-06-26T03:10:46;2.25;;;2.05;;
13477;SDS011;12598;62.382;17.344;2023-06-26T03:11:49;2.33;;;2.10;;
13477;SDS011;12598;62.382;17.344;2023-06-26T03:12:51;2.03;;;1.90;;
13477;SDS011;12598;62.382;17.344;2023-06-26T03:13:53;2.53;;;1.90;;
13477;SDS011;12598;62.382;17.344;2023-06-26T03:14:55;2.60;;;2.30;;
13477;SDS011;12598;62.382;17.344;2023-06-26T03:15:57;2.50;;;2.30;;
13477;SDS011;12598;62.382;17.344;2023-06-26T03:17:00;2.63;;;2.10;;
13477;SDS011;12598;62.382;17.344;2023-06-26T03:18:06;2.65;;;2.45;;
13477;SDS011;12598;62.382;17.344;2023-06-26T03:19:08;2.67;;;2.25;;
13477;SDS011;12598;62.382;17.344;2023-06-26T03:20:30;3.22;;;2.33;;
13477;SDS011;12598;62.382;17.344;2023-06-26T03:21:32;2.63;;;2.42;;
13477;SDS011;12598;62.382;17.344;2023-06-26T03:22:34;2.75;;;2.25;;
13477;SDS011;12598;62.382;17.344;2023-06-26T03:23:36;2.47;;;2.28;;
13477;SDS011;12598;62.382;17.344;2023-06-26T03:24:39;3.92;;;2.42;;
13477;SDS011;12598;62.382;17.344;2023-06-26T03:25:41;2.88;;;2.00;;
13477;SDS011;12598;62.382;17.344;2023-06-26T03:26:58;2.38;;;2.08;;
13477;SDS011;12598;62.382;17.344;2023-06-26T03:28:00;2.55;;;2.35;;
13477;SDS011;12598;62.382;17.344;2023-06-26T03:29:02;2.80;;;2.13;;
13477;SDS011;12598;62.382;17.344;2023-06-26T03:30:05;3.40;;;1.90;;
13477;SDS011;12598;62.382;17.344;2023-06-26T03:31:10;2.25;;;2.10;;
13477;SDS011;12598;62.382;17.344;2023-06-26T03:32:12;2.38;;;2.17;;
13477;SDS011;12598;62.382;17.344;2023-06-26T03:33:14;5.15;;;2.53;;
13477;SDS011;12598;62.382;17.344;2023-06-26T03:34:17;3.97;;;2.30;;
13477;SDS011;12598;62.382;17.344;2023-06-26T03:35:18;4.45;;;2.38;;
13477;SDS011;12598;62.382;17.344;2023-06-26T03:36:21;3.65;;;2.28;;
13477;SDS011;12598;62.382;17.344;2023-06-26T03:37:23;2.75;;;2.28;;
13477;SDS011;12598;62.382;17.344;2023-06-26T03:38:25;2.70;;;2.15;;
13477;SDS011;12598;62.382;17.344;2023-06-26T03:39:30;2.90;;;2.25;;
13477;SDS011;12598;62.382;17.344;2023-06-26T03:40:32;2.72;;;2.20;;
13477;SDS011;12598;62.382;17.344;2023-06-26T03:41:35;2.25;;;2.08;;
13477;SDS011;12598;62.382;17.344;2023-06-26T03:42:38;5.32;;;2.40;;
13477;SDS011;12598;62.382;17.344;2023-06-26T03:43:40;4.70;;;2.45;;
13477;SDS011;12598;62.382;17.344;2023-06-26T03:44:53;2.50;;;2.30;;
13477;SDS011;12598;62.382;17.344;2023-06-26T03:45:55;2.30;;;2.10;;
13477;SDS011;12598;62.382;17.344;2023-06-26T03:46:57;3.03;;;2.65;;
13477;SDS011;12598;62.382;17.344;2023-06-26T03:47:58;3.75;;;2.75;;
13477;SDS011;12598;62.382;17.344;2023-06-26T03:49:00;2.60;;;2.40;;
13477;SDS011;12598;62.382;17.344;2023-06-26T03:50:02;2.85;;;2.55;;
13477;SDS011;12598;62.382;17.344;2023-06-26T03:51:05;2.38;;;2.17;;
13477;SDS011;12598;62.382;17.344;2023-06-26T03:52:08;3.25;;;3.00;;
13477;SDS011;12598;62.382;17.344;2023-06-26T03:53:10;3.67;;;2.45;;
13477;SDS011;12598;62.382;17.344;2023-06-26T03:54:14;2.90;;;2.65;;
13477;SDS011;12598;62.382;17.344;2023-06-26T03:55:17;2.50;;;2.30;;
13477;SDS011;12598;62.382;17.344;2023-06-26T03:56:20;2.85;;;2.35;;
13477;SDS011;12598;62.382;17.344;2023-06-26T03:57:23;2.92;;;2.38;;
13477;SDS011;12598;62.382;17.344;2023-06-26T03:58:26;3.95;;;2.67;;
13477;SDS011;12598;62.382;17.344;2023-06-26T03:59:28;2.08;;;1.98;;
13477;SDS011;12598;62.382;17.344;2023-06-26T04:00:30;5.20;;;2.83;;
13477;SDS011;12598;62.382;17.344;2023-06-26T04:01:32;4.35;;;2.75;;
13477;SDS011;12598;62.382;17.344;2023-06-26T04:02:34;3.33;;;2.70;;
13477;SDS011;12598;62.382;17.344;2023-06-26T04:03:39;2.22;;;2.03;;
13477;SDS011;12598;62.382;17.344;2023-06-26T04:04:41;3.53;;;2.65;;
13477;SDS011;12598;62.382;17.344;2023-06-26T04:05:43;3.60;;;2.55;;
13477;SDS011;12598;62.382;17.344;2023-06-26T04:06:45;3.45;;;2.55;;
13477;SDS011;12598;62.382;17.344;2023-06-26T04:07:51;5.03;;;2.80;;
13477;SDS011;12598;62.382;17.344;2023-06-26T04:08:53;2.60;;;2.40;;
13477;SDS011;12598;62.382;17.344;2023-06-26T04:09:55;2.72;;;2.50;;
13477;SDS011;12598;62.382;17.344;2023-06-26T04:10:57;2.60;;;2.28;;
13477;SDS011;12598;62.382;17.344;2023-06-26T04:12:00;2.53;;;2.33;;
13477;SDS011;12598;62.382;17.344;2023-06-26T04:13:02;3.40;;;2.78;;
13477;SDS011;12598;62.382;17.344;2023-06-26T04:14:04;2.53;;;2.30;;
13477;SDS011;12598;62.382;17.344;2023-06-26T04:15:06;2.72;;;2.53;;
13477;SDS011;12598;62.382;17.344;2023-06-26T04:16:09;4.18;;;2.95;;
13477;SDS011;12598;62.382;17.344;2023-06-26T04:17:13;3.17;;;2.42;;
13477;SDS011;12598;62.382;17.344;2023-06-26T04:18:15;3.75;;;2.60;;
13477;SDS011;12598;62.382;17.344;2023-06-26T04:19:17;2.72;;;2.30;;
13477;SDS011;12598;62.382;17.344;2023-06-26T04:20:18;2.40;;;2.30;;
13477;SDS011;12598;62.382;17.344;2023-06-26T04:21:22;3.95;;;2.30;;
13477;SDS011;12598;62.382;17.344;2023-06-26T04:22:26;3.05;;;2.53;;
13477;SDS011;12598;62.382;17.344;2023-06-26T04:23:28;2.80;;;2.60;;
13477;SDS011;12598;62.382;17.344;2023-06-26T04:24:30;2.53;;;2.33;;
13477;SDS011;12598;62.382;17.344;2023-06-26T04:25:32;2.78;;;2.22;;
13477;SDS011;12598;62.382;17.344;2023-06-26T04:26:33;2.35;;;2.15;;
13477;SDS011;12598;62.382;17.344;2023-06-26T04:27:35;3.20;;;2.53;;
13477;SDS011;12598;62.382;17.344;2023-06-26T04:28:41;3.47;;;2.47;;
13477;SDS011;12598;62.382;17.344;2023-06-26T04:29:44;3.63;;;2.50;;
13477;SDS011;12598;62.382;17.344;2023-06-26T04:30:46;3.55;;;2.80;;
13477;SDS011;12598;62.382;17.344;2023-06-26T04:31:48;2.80;;;2.55;;
13477;SDS011;12598;62.382;17.344;2023-06-26T04:32:50;3.75;;;2.38;;
13477;SDS011;12598;62.382;17.344;2023-06-26T04:33:52;4.60;;;2.58;;
13477;SDS011;12598;62.382;17.344;2023-06-26T04:34:56;5.47;;;2.72;;
13477;SDS011;12598;62.382;17.344;2023-06-26T04:35:58;3.00;;;2.80;;
13477;SDS011;12598;62.382;17.344;2023-06-26T04:37:05;4.15;;;2.47;;
13477;SDS011;12598;62.382;17.344;2023-06-26T04:38:07;2.90;;;2.53;;
13477;SDS011;12598;62.382;17.344;2023-06-26T04:39:10;2.92;;;2.72;;
13477;SDS011;12598;62.382;17.344;2023-06-26T04:40:13;4.28;;;2.60;;
13477;SDS011;12598;62.382;17.344;2023-06-26T04:41:15;2.33;;;2.10;;
13477;SDS011;12598;62.382;17.344;2023-06-26T04:42:17;3.20;;;2.90;;
13477;SDS011;12598;62.382;17.344;2023-06-26T04:43:20;3.05;;;2.70;;
13477;SDS011;12598;62.382;17.344;2023-06-26T04:44:22;3.80;;;2.33;;
13477;SDS011;12598;62.382;17.344;2023-06-26T04:45:24;2.42;;;2.22;;
13477;SDS011;12598;62.382;17.344;2023-06-26T04:46:26;3.35;;;2.58;;
13477;SDS011;12598;62.382;17.344;2023-06-26T04:47:29;2.92;;;2.70;;
13477;SDS011;12598;62.382;17.344;2023-06-26T04:48:31;2.90;;;2.63;;
13477;SDS011;12598;62.382;17.344;2023-06-26T04:49:34;3.28;;;2.70;;
13477;SDS011;12598;62.382;17.344;2023-06-26T04:50:39;2.80;;;2.60;;
13477;SDS011;12598;62.382;17.344;2023-06-26T04:51:42;3.17;;;2.55;;
13477;SDS011;12598;62.382;17.344;2023-06-26T04:52:43;3.00;;;2.70;;
13477;SDS011;12598;62.382;17.344;2023-06-26T04:53:45;3.70;;;2.90;;
13477;SDS011;12598;62.382;17.344;2023-06-26T04:54:47;3.05;;;2.83;;
13477;SDS011;12598;62.382;17.344;2023-06-26T04:55:50;3.53;;;3.00;;
13477;SDS011;12598;62.382;17.344;2023-06-26T04:56:54;4.10;;;2.60;;
13477;SDS011;12598;62.382;17.344;2023-06-26T04:57:56;4.07;;;2.85;;
13477;SDS011;12598;62.382;17.344;2023-06-26T04:58:58;2.90;;;2.70;;
13477;SDS011;12598;62.382;17.344;2023-06-26T05:00:00;4.65;;;3.78;;
13477;SDS011;12598;62.382;17.344;2023-06-26T05:01:03;4.72;;;3.38;;
13477;SDS011;12598;62.382;17.344;2023-06-26T05:02:08;4.30;;;3.35;;
13477;SDS011;12598;62.382;17.344;2023-06-26T05:03:13;5.65;;;3.70;;
13477;SDS011;12598;62.382;17.344;2023-06-26T05:04:18;3.88;;;3.05;;
13477;SDS011;12598;62.382;17.344;2023-06-26T05:05:20;5.00;;;3.40;;
13477;SDS011;12598;62.382;17.344;2023-06-26T05:06:22;5.10;;;3.40;;
13477;SDS011;12598;62.382;17.344;2023-06-26T05:07:24;5.60;;;3.72;;
13477;SDS011;12598;62.382;17.344;2023-06-26T05:08:27;5.38;;;3.58;;
13477;SDS011;12598;62.382;17.344;2023-06-26T05:09:28;6.50;;;3.78;;
13477;SDS011;12598;62.382;17.344;2023-06-26T05:10:31;5.50;;;3.58;;
13477;SDS011;12598;62.382;17.344;2023-06-26T05:11:33;10.50;;;4.03;;
13477;SDS011;12598;62.382;17.344;2023-06-26T05:12:35;7.43;;;3.60;;
13477;SDS011;12598;62.382;17.344;2023-06-26T05:13:37;7.13;;;3.95;;
13477;SDS011;12598;62.382;17.344;2023-06-26T05:14:38;5.93;;;3.55;;
13477;SDS011;12598;62.382;17.344;2023-06-26T05:15:41;4.50;;;4.10;;
13477;SDS011;12598;62.382;17.344;2023-06-26T05:16:43;7.80;;;4.40;;
13477;SDS011;12598;62.382;17.344;2023-06-26T05:17:45;8.45;;;4.07;;
13477;SDS011;12598;62.382;17.344;2023-06-26T05:18:47;6.90;;;4.05;;
13477;SDS011;12598;62.382;17.344;2023-06-26T05:19:49;6.18;;;4.15;;
13477;SDS011;12598;62.382;17.344;2023-06-26T05:20:51;7.70;;;4.05;;
13477;SDS011;12598;62.382;17.344;2023-06-26T05:21:53;5.70;;;4.22;;
13477;SDS011;12598;62.382;17.344;2023-06-26T05:22:57;7.57;;;4.22;;
13477;SDS011;12598;62.382;17.344;2023-06-26T05:24:00;5.25;;;4.10;;
13477;SDS011;12598;62.382;17.344;2023-06-26T05:25:04;5.57;;;4.22;;
13477;SDS011;12598;62.382;17.344;2023-06-26T05:26:07;8.32;;;4.50;;
13477;SDS011;12598;62.382;17.344;2023-06-26T05:27:10;6.13;;;4.80;;
13477;SDS011;12598;62.382;17.344;2023-06-26T05:28:14;6.40;;;4.28;;
13477;SDS011;12598;62.382;17.344;2023-06-26T05:29:17;6.45;;;4.35;;
13477;SDS011;12598;62.382;17.344;2023-06-26T05:30:19;5.10;;;4.60;;
13477;SDS011;12598;62.382;17.344;2023-06-26T05:31:21;6.38;;;4.45;;
13477;SDS011;12598;62.382;17.344;2023-06-26T05:32:23;6.15;;;4.30;;
13477;SDS011;12598;62.382;17.344;2023-06-26T05:33:26;5.78;;;4.57;;
13477;SDS011;12598;62.382;17.344;2023-06-26T05:34:28;6.07;;;4.90;;
13477;SDS011;12598;62.382;17.344;2023-06-26T05:35:33;5.40;;;4.50;;
13477;SDS011;12598;62.382;17.344;2023-06-26T05:36:37;5.82;;;4.70;;
13477;SDS011;12598;62.382;17.344;2023-06-26T05:37:41;6.75;;;4.32;;
13477;SDS011;12598;62.382;17.344;2023-06-26T05:38:43;4.25;;;3.85;;
13477;SDS011;12598;62.382;17.344;2023-06-26T05:39:46;5.60;;;4.05;;
13477;SDS011;12598;62.382;17.344;2023-06-26T05:40:48;6.00;;;4.53;;
13477;SDS011;12598;62.382;17.344;2023-06-26T05:41:51;5.25;;;4.80;;
13477;SDS011;12598;62.382;17.344;2023-06-26T05:42:53;7.03;;;4.57;;
13477;SDS011;12598;62.382;17.344;2023-06-26T05:43:55;5.30;;;4.75;;
13477;SDS011;12598;62.382;17.344;2023-06-26T05:44:57;5.78;;;4.63;;
13477;SDS011;12598;62.382;17.344;2023-06-26T05:45:59;6.25;;;4.43;;
13477;SDS011;12598;62.382;17.344;2023-06-26T05:47:01;6.25;;;4.15;;
13477;SDS011;12598;62.382;17.344;2023-06-26T05:48:03;4.88;;;4.28;;
13477;SDS011;12598;62.382;17.344;2023-06-26T05:49:05;6.25;;;4.55;;
13477;SDS011;12598;62.382;17.344;2023-06-26T05:50:08;7.82;;;4.60;;
13477;SDS011;12598;62.382;17.344;2023-06-26T05:51:10;7.40;;;4.65;;
13477;SDS011;12598;62.382;17.344;2023-06-26T05:52:13;7.55;;;4.72;;
13477;SDS011;12598;62.382;17.344;2023-06-26T05:53:15;5.32;;;4.60;;
13477;SDS011;12598;62.382;17.344;2023-06-26T05:54:17;5.93;;;4.68;;
13477;SDS011;12598;62.382;17.344;2023-06-26T05:55:19;4.90;;;4.28;;
13477;SDS011;12598;62.382;17.344;2023-06-26T05:56:22;6.00;;;4.78;;
13477;SDS011;12598;62.382;17.344;2023-06-26T05:57:24;4.75;;;4.18;;
13477;SDS011;12598;62.382;17.344;2023-06-26T05:58:26;6.30;;;4.30;;
13477;SDS011;12598;62.382;17.344;2023-06-26T05:59:31;5.22;;;4.72;;
13477;SDS011;12598;62.382;17.344;2023-06-26T06:00:34;5.05;;;4.55;;
13477;SDS011;12598;62.382;17.344;2023-06-26T06:01:36;6.28;;;4.40;;
13477;SDS011;12598;62.382;17.344;2023-06-26T06:02:39;5.05;;;4.40;;
13477;SDS011;12598;62.382;17.344;2023-06-26T06:03:43;6.18;;;4.50;;
13477;SDS011;12598;62.382;17.344;2023-06-26T06:04:44;5.45;;;4.55;;
13477;SDS011;12598;62.382;17.344;2023-06-26T06:05:46;4.57;;;4.18;;
13477;SDS011;12598;62.382;17.344;2023-06-26T06:06:48;6.10;;;4.07;;
13477;SDS011;12598;62.382;17.344;2023-06-26T06:07:50;5.28;;;4.38;;
13477;SDS011;12598;62.382;17.344;2023-06-26T06:08:52;4.40;;;4.00;;
13477;SDS011;12598;62.382;17.344;2023-06-26T06:09:54;4.75;;;4.35;;
13477;SDS011;12598;62.382;17.344;2023-06-26T06:10:56;4.63;;;4.22;;
13477;SDS011;12598;62.382;17.344;2023-06-26T06:11:58;4.75;;;3.95;;
13477;SDS011;12598;62.382;17.344;2023-06-26T06:13:00;4.93;;;4.53;;
13477;SDS011;12598;62.382;17.344;2023-06-26T06:14:02;6.15;;;4.20;;
13477;SDS011;12598;62.382;17.344;2023-06-26T06:15:05;4.80;;;4.40;;
13477;SDS011;12598;62.382;17.344;2023-06-26T06:16:07;4.70;;;4.20;;
13477;SDS011;12598;62.382;17.344;2023-06-26T06:17:09;4.78;;;4.20;;
13477;SDS011;12598;62.382;17.344;2023-06-26T06:18:11;4.60;;;4.20;;